Time;durP1;ratioP1;P1;durP2;ratioP2;P2;SDS_P1;SDS_P2;PMS_P1;PMS_P2;Temp;Humidity;BMP_temperature;BMP_pressure;BME280_temperature;BME280_humidity;BME280_pressure;Samples;Min_cycle;Max_cycle;Signal;HPM_P1;HPM_P2
2023/10/05 00:01:31;;;;;;;0.60;0.60;;;13.20;99.90;;;;;;5093252;28;20047;-74
2023/10/05 00:03:57;;;;;;;0.40;0.40;;;13.20;99.90;;;;;;5092633;28;20483;-73
2023/10/05 00:06:25;;;;;;;0.40;0.40;;;13.20;99.90;;;;;;5093219;28;20075;-74
2023/10/05 00:08:56;;;;;;;0.82;0.68;;;13.20;99.90;;;;;;5093338;28;20047;-73
2023/10/05 00:11:28;;;;;;;0.30;0.30;;;13.20;99.90;;;;;;5093428;28;20093;-73
2023/10/05 00:13:59;;;;;;;0.60;0.60;;;13.20;99.90;;;;;;5093127;28;20106;-74
2023/10/05 00:16:36;;;;;;;0.40;0.40;;;13.10;99.90;;;;;;5093162;28;20044;-74
2023/10/05 00:19:12;;;;;;;0.40;0.40;;;13.10;99.90;;;;;;5094938;28;20452;-74
2023/10/05 00:21:46;;;;;;;0.40;0.40;;;13.10;99.90;;;;;;5096799;28;20086;-74
2023/10/05 00:24:11;;;;;;;0.40;0.40;;;13.10;99.90;;;;;;5096697;28;20032;-74
2023/10/05 00:26:37;;;;;;;0.40;0.40;;;13.10;99.90;;;;;;5096561;28;20370;-74
2023/10/05 00:31:39;;;;;;;0.40;0.40;;;13.00;99.90;;;;;;5096966;28;20391;-73
2023/10/05 00:34:24;;;;;;;;;;;13.00;99.90;;;;;;5096920;28;20083;-74
2023/10/05 00:36:50;;;;;;;0.40;0.40;;;13.00;99.90;;;;;;5095444;28;19916;-73
2023/10/05 00:39:20;;;;;;;8.10;1.00;;;13.00;99.90;;;;;;5096294;28;20039;-74
2023/10/05 00:41:57;;;;;;;0.38;0.38;;;13.00;99.90;;;;;;5096637;28;20036;-73
2023/10/05 00:44:23;;;;;;;0.40;0.40;;;13.00;99.90;;;;;;5096326;28;20094;-74
2023/10/05 00:46:49;;;;;;;0.50;0.50;;;13.00;99.90;;;;;;5096272;28;20028;-73
2023/10/05 00:49:23;;;;;;;0.40;0.40;;;13.00;99.90;;;;;;5096028;28;20079;-73
2023/10/05 00:54:51;;;;;;;0.40;0.40;;;13.00;99.90;;;;;;5082834;28;20439;-74
2023/10/05 00:57:23;;;;;;;0.40;0.40;;;13.00;99.90;;;;;;5096080;28;20391;-74
2023/10/05 01:00:26;;;;;;;0.40;0.40;;;13.00;99.90;;;;;;5095982;28;20035;-75
2023/10/05 01:03:10;;;;;;;0.40;0.40;;;13.00;99.90;;;;;;5096162;28;20048;-74
2023/10/05 01:05:47;;;;;;;0.40;0.40;;;13.00;99.90;;;;;;5095967;28;20112;-74
2023/10/05 01:08:15;;;;;;;0.50;0.50;;;13.00;99.90;;;;;;5096107;28;20052;-73
2023/10/05 01:10:48;;;;;;;0.50;0.50;;;13.00;99.90;;;;;;5095794;28;20036;-73
2023/10/05 01:13:26;;;;;;;0.40;0.40;;;13.00;99.90;;;;;;5095701;28;20028;-73
2023/10/05 01:15:54;;;;;;;0.40;0.40;;;13.00;99.90;;;;;;5095619;28;20093;-74
2023/10/05 01:18:24;;;;;;;1.73;1.13;;;13.00;99.90;;;;;;5095531;28;20119;-73
2023/10/05 01:20:50;;;;;;;0.43;0.43;;;13.00;99.90;;;;;;5095595;28;20106;-73
2023/10/05 01:23:15;;;;;;;0.37;0.37;;;13.00;99.90;;;;;;5095591;28;20044;-74
2023/10/05 01:25:41;;;;;;;0.88;0.88;;;13.00;99.90;;;;;;5095533;28;20122;-74
2023/10/05 01:28:07;;;;;;;0.63;0.40;;;13.00;99.90;;;;;;5095793;28;20524;-74
2023/10/05 01:30:37;;;;;;;0.50;0.50;;;13.00;99.90;;;;;;5095219;28;20123;-74
2023/10/05 01:33:04;;;;;;;0.50;0.50;;;13.00;99.90;;;;;;5095899;28;20383;-73
2023/10/05 01:35:29;;;;;;;1.00;0.40;;;13.00;99.90;;;;;;5095318;28;20116;-73
2023/10/05 01:37:59;;;;;;;0.50;0.50;;;13.00;99.90;;;;;;5094871;28;20486;-74
2023/10/05 01:40:26;;;;;;;0.40;0.40;;;13.00;99.90;;;;;;5095207;28;20036;-74
2023/10/05 01:42:53;;;;;;;0.50;0.50;;;13.00;99.90;;;;;;5095147;28;20040;-73
2023/10/05 01:45:24;;;;;;;0.40;0.40;;;13.00;99.90;;;;;;5095153;28;20044;-73
2023/10/05 01:47:50;;;;;;;0.32;0.32;;;13.00;99.90;;;;;;5095122;28;20101;-73
2023/10/05 01:50:19;;;;;;;0.40;0.40;;;13.00;99.90;;;;;;5094981;28;20047;-73
2023/10/05 01:55:36;;;;;;;0.60;0.60;;;13.10;99.90;;;;;;5095255;28;20504;-74
2023/10/05 01:58:06;;;;;;;0.40;0.40;;;13.10;99.90;;;;;;5094784;28;20059;-73
2023/10/05 02:00:37;;;;;;;0.50;0.50;;;13.10;99.90;;;;;;5094826;28;20036;-74
2023/10/05 02:03:07;;;;;;;0.40;0.40;;;13.20;99.90;;;;;;5094866;28;20044;-74
2023/10/05 02:05:33;;;;;;;0.40;0.40;;;13.10;99.90;;;;;;5094792;28;20352;-73
2023/10/05 02:07:58;;;;;;;0.60;0.60;;;13.20;99.90;;;;;;5094759;28;20094;-74
2023/10/05 02:10:24;;;;;;;0.63;0.50;;;13.10;99.90;;;;;;5094670;28;20494;-73
2023/10/05 02:12:54;;;;;;;0.60;0.60;;;13.20;99.90;;;;;;5094610;28;20439;-74
2023/10/05 02:15:28;;;;;;;0.40;0.40;;;13.10;99.90;;;;;;5094536;28;20036;-74
2023/10/05 02:17:56;;;;;;;0.40;0.40;;;13.10;99.90;;;;;;5094594;28;20417;-73
2023/10/05 02:22:54;;;;;;;0.30;0.30;;;13.10;99.90;;;;;;5094790;28;20131;-74
2023/10/05 02:25:24;;;;;;;0.30;0.30;;;13.10;99.90;;;;;;5094435;28;20115;-73
2023/10/05 02:27:50;;;;;;;0.40;0.40;;;13.30;99.90;;;;;;5094301;28;20081;-74
2023/10/05 02:30:17;;;;;;;0.57;0.57;;;13.10;99.90;;;;;;5094275;28;20143;-74
2023/10/05 02:32:44;;;;;;;0.77;0.77;;;13.00;99.90;;;;;;5094334;28;20051;-74
2023/10/05 02:35:24;;;;;;;0.60;0.60;;;13.10;99.90;;;;;;5093993;28;20286;-74
2023/10/05 02:37:52;;;;;;;0.40;0.40;;;13.10;99.90;;;;;;5094365;28;20058;-74
2023/10/05 02:40:25;;;;;;;0.40;0.40;;;13.00;99.90;;;;;;5092695;28;20451;-74
2023/10/05 02:42:51;;;;;;;0.35;0.35;;;13.00;99.90;;;;;;5094150;28;20040;-73
2023/10/05 02:45:17;;;;;;;0.40;0.40;;;13.20;99.90;;;;;;5094407;28;20035;-73
2023/10/05 02:47:43;;;;;;;0.40;0.40;;;13.00;99.90;;;;;;5094359;28;20043;-73
2023/10/05 02:50:09;;;;;;;0.30;0.30;;;13.00;99.90;;;;;;5093956;28;20036;-74
2023/10/05 02:52:36;;;;;;;0.40;0.40;;;13.00;99.90;;;;;;5094078;28;20039;-74
2023/10/05 02:55:06;;;;;;;;;;;13.10;99.90;;;;;;5094299;28;20373;-74
2023/10/05 02:57:32;;;;;;;1.25;0.90;;;13.00;99.90;;;;;;5093980;28;20043;-73
2023/10/05 02:59:59;;;;;;;1.63;0.97;;;13.00;99.90;;;;;;5093771;28;20464;-76
2023/10/05 03:02:25;;;;;;;0.40;0.40;;;13.00;99.90;;;;;;5094195;28;20042;-74
2023/10/05 03:04:58;;;;;;;0.40;0.40;;;13.00;99.90;;;;;;5093966;28;20036;-74
2023/10/05 03:07:27;;;;;;;0.30;0.30;;;13.00;99.90;;;;;;5093702;28;20375;-75
2023/10/05 03:09:59;;;;;;;0.38;0.38;;;13.00;99.90;;;;;;5094363;28;20032;-74
2023/10/05 03:12:25;;;;;;;0.40;0.40;;;13.00;99.90;;;;;;5092564;28;20052;-74
2023/10/05 03:14:52;;;;;;;0.40;0.40;;;13.00;99.90;;;;;;5093790;28;20059;-74
2023/10/05 03:17:21;;;;;;;0.50;0.50;;;13.00;99.90;;;;;;5093722;28;20414;-74
2023/10/05 03:19:50;;;;;;;0.40;0.40;;;13.00;99.90;;;;;;5093639;28;20059;-75
2023/10/05 03:22:16;;;;;;;0.60;0.60;;;13.00;99.90;;;;;;5093345;28;20131;-74
2023/10/05 03:24:44;;;;;;;0.40;0.40;;;13.00;99.90;;;;;;5093352;28;20114;-74
2023/10/05 03:27:10;;;;;;;0.60;0.60;;;13.00;99.90;;;;;;5093558;28;20047;-74
2023/10/05 03:29:38;;;;;;;1.77;0.85;;;13.00;99.90;;;;;;5093350;28;20475;-74
2023/10/05 03:32:13;;;;;;;0.65;0.50;;;13.00;99.90;;;;;;5093718;28;20388;-74
2023/10/05 03:34:43;;;;;;;0.40;0.40;;;13.00;99.90;;;;;;5093551;28;20048;-73
2023/10/05 03:37:15;;;;;;;0.47;0.47;;;13.00;99.90;;;;;;5093498;28;20043;-74
2023/10/05 03:42:25;;;;;;;0.40;0.40;;;13.00;99.90;;;;;;5093467;28;20052;-73
2023/10/05 03:45:00;;;;;;;0.80;0.80;;;13.00;99.90;;;;;;5093593;28;20039;-74
2023/10/05 03:47:26;;;;;;;0.40;0.40;;;13.00;99.90;;;;;;5093460;28;20044;-74
2023/10/05 03:49:55;;;;;;;0.40;0.40;;;13.00;99.90;;;;;;5093413;28;20044;-74
2023/10/05 03:52:21;;;;;;;0.40;0.40;;;13.10;99.90;;;;;;5093355;28;20051;-74
2023/10/05 03:54:47;;;;;;;0.40;0.40;;;13.10;99.90;;;;;;5096817;28;20040;-74
2023/10/05 03:57:13;;;;;;;0.35;0.35;;;13.10;99.90;;;;;;5097227;28;20425;-74
2023/10/05 03:59:39;;;;;;;0.30;0.30;;;13.10;99.90;;;;;;5097205;28;20096;-75
2023/10/05 04:02:05;;;;;;;0.40;0.40;;;13.10;99.90;;;;;;5097112;28;20169;-74
2023/10/05 04:04:35;;;;;;;0.50;0.50;;;13.10;99.90;;;;;;5097230;28;20122;-74
2023/10/05 04:07:04;;;;;;;2.05;0.60;;;13.10;99.90;;;;;;5097094;28;20425;-74
2023/10/05 04:09:30;;;;;;;0.40;0.40;;;13.00;99.90;;;;;;5096876;28;20150;-74
2023/10/05 04:11:56;;;;;;;0.70;0.70;;;13.00;99.90;;;;;;5096975;28;20039;-74
2023/10/05 04:14:22;;;;;;;0.30;0.30;;;13.00;99.90;;;;;;5096913;28;20472;-74
2023/10/05 04:16:51;;;;;;;0.50;0.50;;;13.00;99.90;;;;;;5097227;28;20044;-74
2023/10/05 04:19:17;;;;;;;0.40;0.40;;;13.00;99.90;;;;;;5096744;28;20294;-74
2023/10/05 04:21:44;;;;;;;0.50;0.50;;;13.00;99.90;;;;;;5096820;28;20113;-74
2023/10/05 04:24:14;;;;;;;0.40;0.40;;;13.00;99.90;;;;;;5096866;28;20371;-74
2023/10/05 04:26:44;;;;;;;0.40;0.40;;;13.00;99.90;;;;;;5096670;28;20075;-74
2023/10/05 04:29:14;;;;;;;0.70;0.45;;;13.00;99.90;;;;;;5096359;28;20032;-74
2023/10/05 04:31:41;;;;;;;0.40;0.40;;;13.00;99.90;;;;;;5097338;28;20040;-74
2023/10/05 04:34:18;;;;;;;0.40;0.40;;;13.00;99.90;;;;;;5096602;28;20082;-74
2023/10/05 04:36:53;;;;;;;0.73;0.70;;;13.00;99.90;;;;;;5096519;28;20079;-74
2023/10/05 04:39:27;;;;;;;0.50;0.50;;;13.00;99.90;;;;;;5096258;28;20437;-75
2023/10/05 04:41:55;;;;;;;0.70;0.70;;;13.00;99.90;;;;;;5095708;28;20356;-75
2023/10/05 04:44:20;;;;;;;0.40;0.40;;;13.00;99.90;;;;;;5096481;28;20040;-75
2023/10/05 04:46:49;;;;;;;0.40;0.40;;;13.10;99.90;;;;;;5096374;28;20113;-76
2023/10/05 04:49:16;;;;;;;2.05;1.15;;;13.00;99.90;;;;;;5096539;28;20440;-75
2023/10/05 04:51:43;;;;;;;0.52;0.52;;;13.10;99.90;;;;;;5096257;28;20043;-75
2023/10/05 04:54:18;;;;;;;;;;;13.10;99.90;;;;;;5096320;28;20081;-76
2023/10/05 04:56:53;;;;;;;0.47;0.47;;;13.10;99.90;;;;;;5096657;28;19920;-73
2023/10/05 04:59:37;;;;;;;0.40;0.40;;;13.10;99.90;;;;;;5096035;28;20044;-73
2023/10/05 05:02:35;;;;;;;0.60;0.60;;;13.10;99.90;;;;;;5096248;28;20089;-73
2023/10/05 05:05:32;;;;;;;0.40;0.40;;;13.20;99.90;;;;;;5095471;28;20044;-70
2023/10/05 05:07:53;;;;;;;0.40;0.40;;;13.10;99.90;;;;;;5095552;28;20048;-71
2023/10/05 05:10:20;;;;;;;0.60;0.60;;;13.10;99.90;;;;;;5095844;28;20529;-75
2023/10/05 05:12:47;;;;;;;0.40;0.40;;;13.10;99.90;;;;;;5095644;28;20036;-73
2023/10/05 05:15:14;;;;;;;0.38;0.38;;;13.10;99.90;;;;;;5095726;28;20048;-74
2023/10/05 05:17:40;;;;;;;0.60;0.60;;;13.10;99.90;;;;;;5096228;28;20379;-72
2023/10/05 05:20:11;;;;;;;0.50;0.50;;;13.10;99.90;;;;;;5095596;28;20032;-75
2023/10/05 05:22:38;;;;;;;0.40;0.40;;;13.10;99.90;;;;;;5095731;28;20069;-75
2023/10/05 05:25:06;;;;;;;0.30;0.30;;;13.00;99.90;;;;;;5095510;28;20043;-74
2023/10/05 05:27:33;;;;;;;0.60;0.60;;;13.00;99.90;;;;;;5095525;28;20044;-71
2023/10/05 05:29:59;;;;;;;0.52;0.52;;;13.00;99.90;;;;;;5095441;28;20464;-71
2023/10/05 05:32:24;;;;;;;0.40;0.40;;;12.90;99.90;;;;;;5095397;28;20092;-72
2023/10/05 05:34:50;;;;;;;0.40;0.40;;;12.90;99.90;;;;;;5095344;28;20059;-72
2023/10/05 05:39:56;;;;;;;0.50;0.50;;;12.90;99.90;;;;;;5094931;28;20426;-73
2023/10/05 05:42:25;;;;;;;0.40;0.40;;;12.90;99.90;;;;;;5094926;28;20386;-73
2023/10/05 05:44:52;;;;;;;0.40;0.40;;;12.90;99.90;;;;;;5094734;28;20426;-75
2023/10/05 05:47:18;;;;;;;0.77;0.77;;;12.90;99.90;;;;;;5095149;28;20054;-74
2023/10/05 05:49:47;;;;;;;0.40;0.40;;;13.00;99.90;;;;;;5094976;28;20035;-75
2023/10/05 05:52:15;;;;;;;0.32;0.32;;;13.00;99.90;;;;;;5095061;28;20044;-74
2023/10/05 05:54:42;;;;;;;0.32;0.32;;;13.00;99.90;;;;;;5094984;28;20138;-75
2023/10/05 05:57:09;;;;;;;;;;;13.00;99.90;;;;;;5095328;28;20088;-77
2023/10/05 05:59:35;;;;;;;0.60;0.50;;;13.00;99.90;;;;;;5095446;28;19989;-77
2023/10/05 06:02:04;;;;;;;0.40;0.40;;;13.10;99.90;;;;;;5094883;28;20405;-78
2023/10/05 06:04:32;;;;;;;1.10;1.00;;;13.10;99.90;;;;;;5094969;28;20487;-77
2023/10/05 06:06:59;;;;;;;0.93;0.75;;;13.10;99.90;;;;;;5093200;28;20118;-77
2023/10/05 06:09:26;;;;;;;0.30;0.30;;;13.10;99.90;;;;;;5094354;28;20082;-76
2023/10/05 06:11:53;;;;;;;0.40;0.40;;;13.30;99.90;;;;;;5094447;28;20043;-76
2023/10/05 06:14:19;;;;;;;0.40;0.40;;;13.10;99.90;;;;;;5094421;28;20047;-75
2023/10/05 06:16:45;;;;;;;0.40;0.40;;;13.20;99.90;;;;;;5093550;28;20040;-77
2023/10/05 06:19:11;;;;;;;0.40;0.40;;;13.20;99.90;;;;;;5094230;28;20131;-75
2023/10/05 06:21:37;;;;;;;0.40;0.40;;;13.20;99.90;;;;;;5094447;28;20279;-76
2023/10/05 06:24:04;;;;;;;0.40;0.40;;;13.30;99.90;;;;;;5094288;28;20051;-75
2023/10/05 06:26:30;;;;;;;0.40;0.40;;;13.30;99.90;;;;;;5094227;28;20040;-76
2023/10/05 06:28:56;;;;;;;0.40;0.40;;;13.30;99.90;;;;;;5094136;28;20534;-75
2023/10/05 06:31:22;;;;;;;1.13;0.63;;;13.30;99.90;;;;;;5094228;28;20047;-75
2023/10/05 06:33:48;;;;;;;0.47;0.30;;;13.50;99.90;;;;;;5094320;28;20608;-76
2023/10/05 06:36:14;;;;;;;0.40;0.40;;;13.40;99.90;;;;;;5073964;28;20040;-74
2023/10/05 06:38:40;;;;;;;0.30;0.30;;;13.50;99.90;;;;;;5081305;28;20047;-73
2023/10/05 06:41:06;;;;;;;0.45;0.40;;;13.50;99.90;;;;;;5094660;28;20083;-73
2023/10/05 06:43:35;;;;;;;0.55;0.52;;;13.50;99.90;;;;;;5094093;28;20044;-73
2023/10/05 06:46:26;;;;;;;0.43;0.43;;;13.60;99.90;;;;;;5094071;28;20076;-73
2023/10/05 06:48:50;;;;;;;0.30;0.30;;;13.60;99.90;;;;;;5093523;28;20071;-74
2023/10/05 06:51:29;;;;;;;0.87;0.77;;;13.60;99.90;;;;;;5094005;28;20051;-73
2023/10/05 06:53:57;;;;;;;0.45;0.45;;;13.60;99.90;;;;;;5092993;28;20047;-75
2023/10/05 06:56:23;;;;;;;0.40;0.40;;;13.70;99.90;;;;;;5093839;28;20093;-73
2023/10/05 06:58:49;;;;;;;0.63;0.63;;;13.60;99.90;;;;;;5093885;28;20032;-73
2023/10/05 07:01:15;;;;;;;0.40;0.40;;;13.70;99.90;;;;;;5093927;28;20120;-73
2023/10/05 07:03:41;;;;;;;0.40;0.40;;;13.80;99.90;;;;;;5093844;28;20087;-73
2023/10/05 07:06:07;;;;;;;1.00;1.00;;;13.80;99.90;;;;;;5093776;28;20040;-73
2023/10/05 07:08:33;;;;;;;0.40;0.40;;;13.90;99.90;;;;;;5092499;28;20044;-75
2023/10/05 07:10:59;;;;;;;3.33;1.00;;;13.90;99.90;;;;;;5093562;28;20392;-74
2023/10/05 07:13:28;;;;;;;1.03;1.00;;;13.90;99.90;;;;;;5093756;28;20044;-72
2023/10/05 07:15:55;;;;;;;0.43;0.43;;;14.00;99.90;;;;;;5093764;28;20044;-75
2023/10/05 07:18:21;;;;;;;0.50;0.50;;;14.00;99.90;;;;;;5093690;28;20357;-74
2023/10/05 07:20:48;;;;;;;0.30;0.30;;;14.10;99.90;;;;;;5094192;28;20036;-74
2023/10/05 07:23:14;;;;;;;2.78;0.57;;;14.10;99.90;;;;;;5093666;28;20130;-73
2023/10/05 07:25:41;;;;;;;0.43;0.35;;;14.20;99.90;;;;;;5094163;28;20068;-72
2023/10/05 07:28:13;;;;;;;0.43;0.43;;;14.20;99.90;;;;;;5095910;28;20094;-73
2023/10/05 07:30:41;;;;;;;0.43;0.43;;;14.20;99.90;;;;;;5097563;28;20118;-74
2023/10/05 07:33:06;;;;;;;0.43;0.43;;;14.20;99.90;;;;;;5097681;28;20135;-74
2023/10/05 07:35:32;;;;;;;0.50;0.50;;;14.20;99.90;;;;;;5097735;28;20119;-73
2023/10/05 07:37:59;;;;;;;0.60;0.57;;;14.20;99.90;;;;;;5097694;28;20040;-76
2023/10/05 07:40:25;;;;;;;0.55;0.55;;;14.30;99.90;;;;;;5097800;28;20044;-74
2023/10/05 07:42:50;;;;;;;0.40;0.40;;;14.20;99.90;;;;;;5097598;28;20048;-72
2023/10/05 07:45:16;;;;;;;0.80;0.70;;;14.30;99.90;;;;;;5097253;28;20087;-74
2023/10/05 07:47:43;;;;;;;0.30;0.30;;;14.40;99.90;;;;;;5097460;28;20047;-73
2023/10/05 07:50:10;;;;;;;0.40;0.40;;;14.40;99.90;;;;;;5097406;28;20040;-72
2023/10/05 07:52:38;;;;;;;;;;;14.40;99.90;;;;;;5098071;28;20384;-74
2023/10/05 07:55:08;;;;;;;0.68;0.40;;;14.50;99.90;;;;;;5097298;28;19915;-73
2023/10/05 07:57:33;;;;;;;0.45;0.40;;;14.50;99.90;;;;;;5097212;28;20032;-73
2023/10/05 07:59:59;;;;;;;0.30;0.30;;;14.60;99.90;;;;;;5097176;28;20052;-73
2023/10/05 08:02:25;;;;;;;0.40;0.40;;;14.60;99.90;;;;;;5096860;28;20048;-73
2023/10/05 08:04:51;;;;;;;0.40;0.40;;;14.60;99.90;;;;;;5097181;28;20118;-74
2023/10/05 08:07:16;;;;;;;0.30;0.30;;;14.70;99.90;;;;;;5096840;28;20078;-75
2023/10/05 08:09:42;;;;;;;0.63;0.63;;;14.70;99.90;;;;;;5097402;28;20050;-74
2023/10/05 08:12:09;;;;;;;1.97;1.13;;;14.80;99.90;;;;;;5097035;28;20035;-75
2023/10/05 08:14:36;;;;;;;0.35;0.35;;;14.90;99.90;;;;;;5097086;28;20052;-73
2023/10/05 08:17:03;;;;;;;;;;;14.90;99.90;;;;;;5097223;28;20104;-74
2023/10/05 08:19:29;;;;;;;0.40;0.40;;;15.00;99.90;;;;;;5096818;28;19922;-73
2023/10/05 08:21:55;;;;;;;0.40;0.40;;;15.10;99.90;;;;;;5096882;28;20130;-76
2023/10/05 08:24:24;;;;;;;0.30;0.30;;;15.10;99.90;;;;;;5096804;28;20384;-71
2023/10/05 08:26:53;;;;;;;0.60;0.50;;;15.20;99.90;;;;;;5096547;28;20777;-75
2023/10/05 08:29:22;;;;;;;0.40;0.40;;;15.20;99.90;;;;;;5095630;28;20047;-76
2023/10/05 08:31:52;;;;;;;0.30;0.30;;;15.20;99.90;;;;;;5096586;28;20086;-73
2023/10/05 08:34:21;;;;;;;0.30;0.30;;;15.30;99.90;;;;;;5096638;28;20040;-72
2023/10/05 08:36:53;;;;;;;0.40;0.40;;;15.40;99.90;;;;;;5096483;28;20070;-74
2023/10/05 08:39:25;;;;;;;0.40;0.40;;;15.40;99.90;;;;;;5095828;28;20051;-74
2023/10/05 08:41:57;;;;;;;0.60;0.60;;;15.50;99.90;;;;;;5096488;28;20047;-75
2023/10/05 08:44:30;;;;;;;3.60;0.75;;;15.60;99.90;;;;;;5096594;28;20468;-73
2023/10/05 08:46:57;;;;;;;1.35;1.15;;;15.60;99.90;;;;;;5096403;28;20122;-73
2023/10/05 08:49:23;;;;;;;;;;;15.70;99.90;;;;;;5096672;28;20462;-72
2023/10/05 08:51:50;;;;;;;0.38;0.38;;;15.70;99.90;;;;;;5095894;28;20380;-74
2023/10/05 08:54:21;;;;;;;0.40;0.40;;;15.70;99.90;;;;;;5095906;28;20048;-72
2023/10/05 08:56:48;;;;;;;0.50;0.40;;;15.80;99.90;;;;;;5096069;28;20051;-72
2023/10/05 08:59:16;;;;;;;0.40;0.40;;;15.80;99.90;;;;;;5096113;28;20036;-73
2023/10/05 09:01:43;;;;;;;0.30;0.30;;;15.80;99.90;;;;;;5095724;28;20468;-76
2023/10/05 09:06:49;;;;;;;0.40;0.40;;;15.90;99.90;;;;;;5096243;28;19915;-72
2023/10/05 09:09:18;;;;;;;0.30;0.30;;;16.00;99.90;;;;;;5095482;28;20062;-73
2023/10/05 09:11:43;;;;;;;0.55;0.47;;;16.00;99.90;;;;;;5095872;28;20044;-71
2023/10/05 09:14:14;;;;;;;0.40;0.40;;;16.00;99.90;;;;;;5095944;28;20048;-71
2023/10/05 09:16:48;;;;;;;0.30;0.30;;;16.00;99.90;;;;;;5096103;28;20048;-71
2023/10/05 09:19:23;;;;;;;0.30;0.30;;;16.10;99.90;;;;;;5095538;28;20454;-72
2023/10/05 09:22:34;;;;;;;0.30;0.30;;;16.20;99.90;;;;;;5095665;28;20368;-73
2023/10/05 09:24:36;;;;;;;0.60;0.60;;;16.30;99.90;;;;;;5084688;28;20080;-74
2023/10/05 09:27:17;;;;;;;0.40;0.40;;;16.40;99.90;;;;;;5095644;28;20115;-75
2023/10/05 09:29:44;;;;;;;0.40;0.40;;;16.40;99.90;;;;;;5095692;28;20032;-72
2023/10/05 09:32:36;;;;;;;;;;;16.40;99.90;;;;;;5095769;28;20040;-71
2023/10/05 09:35:04;;;;;;;0.68;0.68;;;16.40;99.90;;;;;;5095749;28;20327;-71
2023/10/05 09:37:35;;;;;;;0.90;0.88;;;16.30;99.90;;;;;;5095377;28;20134;-73
2023/10/05 09:40:03;;;;;;;0.30;0.30;;;16.30;99.90;;;;;;5095530;28;20105;-72
2023/10/05 09:42:34;;;;;;;0.50;0.50;;;16.40;99.90;;;;;;5095319;28;20043;-73
2023/10/05 09:45:08;;;;;;;0.30;0.30;;;16.30;99.90;;;;;;5094978;28;20090;-72
2023/10/05 09:47:35;;;;;;;0.30;0.30;;;16.40;99.90;;;;;;5095186;28;20127;-72
2023/10/05 09:50:03;;;;;;;;;;;16.50;99.90;;;;;;5095605;28;20047;-71
2023/10/05 09:52:35;;;;;;;0.40;0.40;;;16.40;99.90;;;;;;5094221;28;19923;-72
2023/10/05 09:55:07;;;;;;;0.77;0.68;;;16.50;99.90;;;;;;5095135;28;20091;-71
2023/10/05 09:57:41;;;;;;;0.45;0.45;;;16.50;99.90;;;;;;5095152;28;20298;-71
2023/10/05 10:00:30;;;;;;;0.40;0.40;;;16.50;99.90;;;;;;5094149;28;20387;-71
2023/10/05 10:02:59;;;;;;;0.30;0.30;;;16.50;99.90;;;;;;5092953;28;20434;-70
2023/10/05 10:05:36;;;;;;;0.40;0.40;;;16.50;99.90;;;;;;5094476;28;20567;-71
2023/10/05 10:08:20;;;;;;;0.43;0.43;;;16.50;99.90;;;;;;5095030;28;20086;-71
2023/10/05 10:11:03;;;;;;;0.52;0.43;;;16.50;99.90;;;;;;5094979;28;20036;-70
2023/10/05 10:13:39;;;;;;;1.38;0.75;;;16.50;99.90;;;;;;5094649;28;20044;-71
2023/10/05 10:16:22;;;;;;;0.30;0.30;;;16.50;99.90;;;;;;5094524;28;20127;-72
2023/10/05 10:19:18;;;;;;;0.40;0.40;;;16.50;99.90;;;;;;5095045;28;20147;-71
2023/10/05 10:21:53;;;;;;;1.08;0.55;;;16.50;99.90;;;;;;5094822;28;20040;-72
2023/10/05 10:24:19;;;;;;;0.30;0.30;;;16.50;99.90;;;;;;5094492;28;20036;-73
2023/10/05 10:26:52;;;;;;;0.35;0.35;;;16.60;99.90;;;;;;5098819;28;20044;-72
2023/10/05 10:29:22;;;;;;;0.30;0.30;;;16.50;99.90;;;;;;5104925;28;20044;-71
2023/10/05 10:32:22;;;;;;;0.30;0.30;;;16.50;99.90;;;;;;5100464;28;20040;-72
2023/10/05 10:34:55;;;;;;;0.40;0.40;;;16.50;99.90;;;;;;5093873;28;20138;-75
2023/10/05 10:37:42;;;;;;;0.40;0.40;;;16.50;99.90;;;;;;5099751;28;20123;-73
2023/10/05 10:42:54;;;;;;;0.50;0.50;;;16.60;99.90;;;;;;5094430;28;20050;-73
2023/10/05 10:45:24;;;;;;;0.30;0.30;;;16.60;99.90;;;;;;5094061;28;20087;-73
2023/10/05 10:47:52;;;;;;;0.30;0.30;;;16.70;99.90;;;;;;5094447;28;20444;-73
2023/10/05 10:50:38;;;;;;;0.40;0.40;;;16.80;99.90;;;;;;5094025;28;20089;-75
2023/10/05 10:53:16;;;;;;;0.50;0.50;;;16.80;99.90;;;;;;5093889;28;20047;-75
2023/10/05 10:55:47;;;;;;;0.50;0.50;;;16.90;99.90;;;;;;5093971;28;20052;-74
2023/10/05 10:58:16;;;;;;;1.05;0.95;;;17.00;99.90;;;;;;5094238;28;20422;-74
2023/10/05 11:01:03;;;;;;;0.30;0.30;;;17.00;99.90;;;;;;5093902;28;20050;-74
2023/10/05 11:03:30;;;;;;;2.15;0.52;;;17.10;99.90;;;;;;5093530;28;20044;-74
2023/10/05 11:05:58;;;;;;;0.30;0.30;;;17.10;99.90;;;;;;5093776;28;20036;-73
2023/10/05 11:08:24;;;;;;;0.30;0.30;;;17.10;99.90;;;;;;5093339;28;20051;-75
2023/10/05 11:11:21;;;;;;;;;;;17.00;99.90;;;;;;5094213;28;20044;-74
2023/10/05 11:13:56;;;;;;;0.30;0.30;;;17.00;99.90;;;;;;5093859;28;19971;-73
2023/10/05 11:16:35;;;;;;;1.17;0.70;;;17.00;99.90;;;;;;5093949;28;20055;-76
2023/10/05 11:19:04;;;;;;;0.50;0.50;;;17.00;99.90;;;;;;5093689;28;20097;-73
2023/10/05 11:21:35;;;;;;;0.55;0.40;;;17.10;99.90;;;;;;5093682;28;20040;-73
2023/10/05 11:24:06;;;;;;;0.63;0.55;;;17.10;99.90;;;;;;5093715;28;20048;-79
2023/10/05 11:26:35;;;;;;;0.40;0.40;;;17.20;99.90;;;;;;5093185;28;20376;-72
2023/10/05 11:29:07;;;;;;;1.85;0.45;;;17.40;99.90;;;;;;5093803;28;20040;-73
2023/10/05 11:31:34;;;;;;;1.20;0.52;;;17.50;99.90;;;;;;5093756;28;20036;-73
2023/10/05 11:34:11;;;;;;;0.40;0.40;;;17.60;99.90;;;;;;5093986;28;20059;-75
2023/10/05 11:36:42;;;;;;;0.32;0.32;;;17.60;99.90;;;;;;5093547;28;20081;-75
2023/10/05 11:39:26;;;;;;;0.65;0.65;;;17.60;99.90;;;;;;5093569;28;20472;-74
2023/10/05 11:41:56;;;;;;;0.50;0.40;;;17.50;99.90;;;;;;5093487;28;20055;-74
2023/10/05 11:44:25;;;;;;;0.45;0.45;;;17.40;99.90;;;;;;5094199;28;20169;-74
2023/10/05 11:46:54;;;;;;;0.40;0.40;;;17.40;99.90;;;;;;5093473;28;20044;-75
2023/10/05 11:49:30;;;;;;;0.88;0.77;;;17.30;99.90;;;;;;5093571;28;20028;-74
2023/10/05 11:51:56;;;;;;;0.50;0.37;;;17.20;99.90;;;;;;5093532;28;20044;-74
2023/10/05 11:54:24;;;;;;;0.60;0.57;;;17.10;99.90;;;;;;5093344;28;20377;-73
2023/10/05 11:56:52;;;;;;;0.30;0.30;;;16.90;99.90;;;;;;5092443;28;20036;-71
2023/10/05 11:59:26;;;;;;;0.30;0.30;;;16.80;99.90;;;;;;5093033;28;20032;-73
2023/10/05 12:01:53;;;;;;;0.93;0.52;;;16.70;99.90;;;;;;5092854;28;20044;-70
2023/10/05 12:04:23;;;;;;;0.30;0.30;;;16.60;99.90;;;;;;5093394;28;20035;-74
2023/10/05 12:06:58;;;;;;;0.50;0.50;;;16.50;99.90;;;;;;5093137;28;20040;-73
2023/10/05 12:09:30;;;;;;;0.65;0.65;;;16.40;99.90;;;;;;5093768;28;20543;-73
2023/10/05 12:11:58;;;;;;;0.47;0.47;;;16.30;99.90;;;;;;5092895;28;20094;-72
2023/10/05 12:14:25;;;;;;;0.38;0.38;;;16.30;99.90;;;;;;5094136;28;20048;-73
2023/10/05 12:16:56;;;;;;;0.30;0.30;;;16.20;99.90;;;;;;5096863;28;20081;-73
2023/10/05 12:19:28;;;;;;;0.30;0.30;;;16.10;99.90;;;;;;5096257;28;20119;-76
2023/10/05 12:22:06;;;;;;;0.80;0.60;;;16.10;99.90;;;;;;5093856;28;20042;-72
2023/10/05 12:24:33;;;;;;;0.32;0.32;;;16.00;99.90;;;;;;5095534;28;20040;-75
2023/10/05 12:26:59;;;;;;;0.32;0.32;;;16.00;99.90;;;;;;5094888;28;20062;-75
2023/10/05 12:29:26;;;;;;;0.30;0.30;;;16.00;99.90;;;;;;5095945;28;20116;-71
2023/10/05 12:31:52;;;;;;;0.30;0.30;;;16.10;99.90;;;;;;5094310;28;20438;-73
2023/10/05 12:34:23;;;;;;;0.30;0.30;;;16.20;99.90;;;;;;5096737;28;20040;-73
2023/10/05 12:36:49;;;;;;;0.30;0.30;;;16.30;99.90;;;;;;5096334;28;20089;-72
2023/10/05 12:39:26;;;;;;;0.30;0.30;;;16.30;99.90;;;;;;5096108;28;20040;-75
2023/10/05 12:41:54;;;;;;;0.30;0.30;;;16.40;99.90;;;;;;5096563;28;20040;-71
2023/10/05 12:44:20;;;;;;;0.50;0.50;;;16.40;99.90;;;;;;5095784;28;20101;-73
2023/10/05 12:46:47;;;;;;;0.30;0.30;;;16.50;99.90;;;;;;5095903;28;20417;-73
2023/10/05 12:49:17;;;;;;;0.30;0.30;;;16.50;99.90;;;;;;5095785;28;20086;-81
2023/10/05 12:51:44;;;;;;;0.30;0.30;;;16.50;99.90;;;;;;5095961;28;20081;-75
2023/10/05 12:54:29;;;;;;;0.75;0.60;;;16.60;99.90;;;;;;5095935;28;20040;-75
2023/10/05 12:56:56;;;;;;;0.30;0.30;;;16.60;99.90;;;;;;5095490;28;20040;-74
2023/10/05 12:59:22;;;;;;;;;;;16.70;99.90;;;;;;5095625;28;20047;-75
2023/10/05 13:01:48;;;;;;;0.30;0.30;;;16.80;99.90;;;;;;5095876;28;19922;-77
2023/10/05 13:04:16;;;;;;;0.30;0.30;;;16.90;99.90;;;;;;5095772;28;20186;-77
2023/10/05 13:06:43;;;;;;;0.73;0.38;;;17.00;99.90;;;;;;5095623;28;20043;-77
2023/10/05 13:09:13;;;;;;;0.65;0.30;;;17.00;99.90;;;;;;5095440;28;20086;-76
2023/10/05 13:11:47;;;;;;;0.40;0.40;;;17.10;99.90;;;;;;5095602;28;20097;-77
2023/10/05 13:14:14;;;;;;;0.30;0.30;;;17.20;99.90;;;;;;5095372;28;20035;-77
2023/10/05 13:16:54;;;;;;;0.30;0.30;;;17.30;99.90;;;;;;5095480;28;20032;-77
2023/10/05 13:19:20;;;;;;;0.30;0.30;;;17.30;99.90;;;;;;5095266;28;20040;-75
2023/10/05 13:21:46;;;;;;;0.40;0.40;;;17.50;99.90;;;;;;5095450;28;20072;-74
2023/10/05 13:24:12;;;;;;;1.07;0.80;;;17.50;99.90;;;;;;5095190;28;20412;-73
2023/10/05 13:26:44;;;;;;;0.30;0.30;;;17.60;99.90;;;;;;5094602;28;20502;-75